sensor_id;sensor_type;location;lat;lon;timestamp;temperature;humidity
56542;DHT22;42438;53.174;6.730;2023-05-16T00:01:56;8.40;99.90
56542;DHT22;42438;53.174;6.730;2023-05-16T00:04:27;8.30;99.90
56542;DHT22;42438;53.174;6.730;2023-05-16T00:06:58;8.20;99.90
56542;DHT22;42438;53.174;6.730;2023-05-16T00:09:28;8.20;99.90
56542;DHT22;42438;53.174;6.730;2023-05-16T00:11:59;8.10;99.90
56542;DHT22;42438;53.174;6.730;2023-05-16T00:14:30;8.10;99.90
56542;DHT22;42438;53.174;6.730;2023-05-16T00:17:00;8.00;99.90
56542;DHT22;42438;53.174;6.730;2023-05-16T00:19:31;7.90;99.90
56542;DHT22;42438;53.174;6.730;2023-05-16T00:22:02;7.80;99.90
56542;DHT22;42438;53.174;6.730;2023-05-16T00:24:33;7.80;99.90
56542;DHT22;42438;53.174;6.730;2023-05-16T00:27:04;7.80;99.90
56542;DHT22;42438;53.174;6.730;2023-05-16T00:29:35;8.00;99.90
56542;DHT22;42438;53.174;6.730;2023-05-16T00:32:06;7.80;99.90
56542;DHT22;42438;53.174;6.730;2023-05-16T00:34:38;7.80;99.90
56542;DHT22;42438;53.174;6.730;2023-05-16T00:37:08;7.80;99.90
56542;DHT22;42438;53.174;6.730;2023-05-16T00:39:39;7.80;99.90
56542;DHT22;42438;53.174;6.730;2023-05-16T00:42:10;7.80;99.90
56542;DHT22;42438;53.174;6.730;2023-05-16T00:44:40;7.70;99.90
56542;DHT22;42438;53.174;6.730;2023-05-16T00:47:11;7.60;99.90
56542;DHT22;42438;53.174;6.730;2023-05-16T00:49:42;7.50;99.90
56542;DHT22;42438;53.174;6.730;2023-05-16T00:52:13;7.50;99.90
56542;DHT22;42438;53.174;6.730;2023-05-16T00:54:43;7.50;99.90
56542;DHT22;42438;53.174;6.730;2023-05-16T00:57:14;7.50;99.90
56542;DHT22;42438;53.174;6.730;2023-05-16T00:59:46;7.90;99.90
56542;DHT22;42438;53.174;6.730;2023-05-16T01:02:17;7.40;99.90
56542;DHT22;42438;53.174;6.730;2023-05-16T01:04:47;7.40;99.90
56542;DHT22;42438;53.174;6.730;2023-05-16T01:07:19;7.30;99.90
56542;DHT22;42438;53.174;6.730;2023-05-16T01:09:49;7.30;99.90
56542;DHT22;42438;53.174;6.730;2023-05-16T01:12:57;7.20;99.90
56542;DHT22;42438;53.174;6.730;2023-05-16T01:15:37;7.20;99.90
56542;DHT22;42438;53.174;6.730;2023-05-16T01:18:28;7.20;99.90
56542;DHT22;42438;53.174;6.730;2023-05-16T01:21:00;7.10;99.90
56542;DHT22;42438;53.174;6.730;2023-05-16T01:23:42;7.00;99.90
56542;DHT22;42438;53.174;6.730;2023-05-16T01:26:22;6.90;99.90
56542;DHT22;42438;53.174;6.730;2023-05-16T01:28:53;6.90;99.90
56542;DHT22;42438;53.174;6.730;2023-05-16T01:31:24;6.80;99.90
56542;DHT22;42438;53.174;6.730;2023-05-16T01:33:54;6.70;99.90
56542;DHT22;42438;53.174;6.730;2023-05-16T01:36:43;6.70;99.90
56542;DHT22;42438;53.174;6.730;2023-05-16T01:39:26;6.60;99.90
56542;DHT22;42438;53.174;6.730;2023-05-16T01:47:32;6.50;99.90
56542;DHT22;42438;53.174;6.730;2023-05-16T01:50:14;6.40;99.90
56542;DHT22;42438;53.174;6.730;2023-05-16T01:52:59;6.40;99.90
56542;DHT22;42438;53.174;6.730;2023-05-16T01:55:45;6.40;99.90
56542;DHT22;42438;53.174;6.730;2023-05-16T01:58:17;6.50;99.90
56542;DHT22;42438;53.174;6.730;2023-05-16T02:00:58;6.50;1.00
56542;DHT22;42438;53.174;6.730;2023-05-16T02:03:30;6.60;99.90
56542;DHT22;42438;53.174;6.730;2023-05-16T02:06:01;6.70;99.90
56542;DHT22;42438;53.174;6.730;2023-05-16T02:08:32;6.60;99.90
56542;DHT22;42438;53.174;6.730;2023-05-16T02:11:02;6.60;99.90
56542;DHT22;42438;53.174;6.730;2023-05-16T02:13:33;7.30;99.90
56542;DHT22;42438;53.174;6.730;2023-05-16T02:16:04;6.60;99.90
56542;DHT22;42438;53.174;6.730;2023-05-16T02:18:34;6.50;99.90
56542;DHT22;42438;53.174;6.730;2023-05-16T02:21:05;6.50;99.90
56542;DHT22;42438;53.174;6.730;2023-05-16T02:23:36;6.40;99.90
56542;DHT22;42438;53.174;6.730;2023-05-16T02:26:06;6.40;99.90
56542;DHT22;42438;53.174;6.730;2023-05-16T02:28:37;6.30;99.90
56542;DHT22;42438;53.174;6.730;2023-05-16T02:31:08;6.30;99.90
56542;DHT22;42438;53.174;6.730;2023-05-16T02:33:38;6.30;99.90
56542;DHT22;42438;53.174;6.730;2023-05-16T02:36:09;6.30;99.90
56542;DHT22;42438;53.174;6.730;2023-05-16T02:38:40;6.30;99.90
56542;DHT22;42438;53.174;6.730;2023-05-16T02:41:11;6.30;99.90
56542;DHT22;42438;53.174;6.730;2023-05-16T02:43:42;6.30;99.90
56542;DHT22;42438;53.174;6.730;2023-05-16T02:46:27;6.30;99.90
56542;DHT22;42438;53.174;6.730;2023-05-16T02:48:58;6.30;99.90
56542;DHT22;42438;53.174;6.730;2023-05-16T02:51:29;6.20;99.90
56542;DHT22;42438;53.174;6.730;2023-05-16T02:54:00;6.10;99.90
56542;DHT22;42438;53.174;6.730;2023-05-16T02:56:31;6.10;99.90
56542;DHT22;42438;53.174;6.730;2023-05-16T02:59:01;6.00;99.90
56542;DHT22;42438;53.174;6.730;2023-05-16T03:01:33;5.90;99.90
56542;DHT22;42438;53.174;6.730;2023-05-16T03:04:04;6.00;99.90
56542;DHT22;42438;53.174;6.730;2023-05-16T03:06:35;6.00;99.90
56542;DHT22;42438;53.174;6.730;2023-05-16T03:09:05;5.90;99.90
56542;DHT22;42438;53.174;6.730;2023-05-16T03:11:37;5.90;99.90
56542;DHT22;42438;53.174;6.730;2023-05-16T03:14:07;5.80;99.90
56542;DHT22;42438;53.174;6.730;2023-05-16T03:16:39;5.80;99.90
56542;DHT22;42438;53.174;6.730;2023-05-16T03:19:12;5.70;99.90
56542;DHT22;42438;53.174;6.730;2023-05-16T03:21:43;5.70;99.90
56542;DHT22;42438;53.174;6.730;2023-05-16T03:24:14;5.70;1.00
56542;DHT22;42438;53.174;6.730;2023-05-16T03:26:44;5.70;1.00
56542;DHT22;42438;53.174;6.730;2023-05-16T03:29:15;5.60;1.00
56542;DHT22;42438;53.174;6.730;2023-05-16T03:31:46;5.60;1.00
56542;DHT22;42438;53.174;6.730;2023-05-16T03:34:16;5.60;1.00
56542;DHT22;42438;53.174;6.730;2023-05-16T03:36:48;5.60;1.00
56542;DHT22;42438;53.174;6.730;2023-05-16T03:39:19;5.60;1.00
56542;DHT22;42438;53.174;6.730;2023-05-16T03:41:49;5.60;1.00
56542;DHT22;42438;53.174;6.730;2023-05-16T03:44:21;5.70;1.00
56542;DHT22;42438;53.174;6.730;2023-05-16T03:46:52;6.40;1.00
56542;DHT22;42438;53.174;6.730;2023-05-16T03:49:25;5.80;1.00
56542;DHT22;42438;53.174;6.730;2023-05-16T03:51:59;5.80;1.00
56542;DHT22;42438;53.174;6.730;2023-05-16T03:54:30;5.80;1.00
56542;DHT22;42438;53.174;6.730;2023-05-16T03:57:01;5.90;1.00
56542;DHT22;42438;53.174;6.730;2023-05-16T03:59:31;5.90;1.00
56542;DHT22;42438;53.174;6.730;2023-05-16T04:02:05;5.90;1.00
56542;DHT22;42438;53.174;6.730;2023-05-16T04:04:36;6.00;1.00
56542;DHT22;42438;53.174;6.730;2023-05-16T04:07:06;6.10;1.00
56542;DHT22;42438;53.174;6.730;2023-05-16T04:09:37;6.10;1.00
56542;DHT22;42438;53.174;6.730;2023-05-16T04:12:08;6.20;1.00
56542;DHT22;42438;53.174;6.730;2023-05-16T04:14:38;6.20;1.00
56542;DHT22;42438;53.174;6.730;2023-05-16T04:17:09;6.20;1.00
56542;DHT22;42438;53.174;6.730;2023-05-16T04:19:40;6.30;1.00
56542;DHT22;42438;53.174;6.730;2023-05-16T04:22:10;6.30;1.00
56542;DHT22;42438;53.174;6.730;2023-05-16T04:24:41;6.40;1.00
56542;DHT22;42438;53.174;6.730;2023-05-16T04:27:12;6.40;1.00
56542;DHT22;42438;53.174;6.730;2023-05-16T04:29:42;7.20;1.00
56542;DHT22;42438;53.174;6.730;2023-05-16T04:32:14;6.70;1.00
56542;DHT22;42438;53.174;6.730;2023-05-16T04:34:44;6.70;1.00
56542;DHT22;42438;53.174;6.730;2023-05-16T04:37:16;7.30;1.00
56542;DHT22;42438;53.174;6.730;2023-05-16T04:39:46;6.80;99.90
56542;DHT22;42438;53.174;6.730;2023-05-16T04:42:17;6.90;99.90
56542;DHT22;42438;53.174;6.730;2023-05-16T04:44:47;6.90;99.90
56542;DHT22;42438;53.174;6.730;2023-05-16T04:47:18;7.40;99.90
56542;DHT22;42438;53.174;6.730;2023-05-16T04:49:49;7.40;99.90
56542;DHT22;42438;53.174;6.730;2023-05-16T04:52:19;7.10;99.90
56542;DHT22;42438;53.174;6.730;2023-05-16T04:54:50;7.20;1.00
56542;DHT22;42438;53.174;6.730;2023-05-16T04:57:21;7.40;1.00
56542;DHT22;42438;53.174;6.730;2023-05-16T04:59:52;7.50;99.90
56542;DHT22;42438;53.174;6.730;2023-05-16T05:02:23;7.50;99.90
56542;DHT22;42438;53.174;6.730;2023-05-16T05:04:53;7.50;99.90
56542;DHT22;42438;53.174;6.730;2023-05-16T05:07:24;7.60;99.90
56542;DHT22;42438;53.174;6.730;2023-05-16T05:09:58;7.60;99.90
56542;DHT22;42438;53.174;6.730;2023-05-16T05:12:28;7.70;99.90
56542;DHT22;42438;53.174;6.730;2023-05-16T05:14:59;7.90;99.90
56542;DHT22;42438;53.174;6.730;2023-05-16T05:17:30;7.90;99.90
56542;DHT22;42438;53.174;6.730;2023-05-16T05:20:00;8.00;99.90
56542;DHT22;42438;53.174;6.730;2023-05-16T05:22:32;8.10;99.90
56542;DHT22;42438;53.174;6.730;2023-05-16T05:25:04;8.20;99.90
56542;DHT22;42438;53.174;6.730;2023-05-16T05:27:35;8.30;99.90
56542;DHT22;42438;53.174;6.730;2023-05-16T05:30:06;8.50;99.90
56542;DHT22;42438;53.174;6.730;2023-05-16T05:32:36;8.60;99.90
56542;DHT22;42438;53.174;6.730;2023-05-16T05:35:07;8.60;99.90
56542;DHT22;42438;53.174;6.730;2023-05-16T05:37:38;8.50;99.90
56542;DHT22;42438;53.174;6.730;2023-05-16T05:40:09;8.50;99.90
56542;DHT22;42438;53.174;6.730;2023-05-16T05:42:39;8.40;99.90
56542;DHT22;42438;53.174;6.730;2023-05-16T05:45:10;8.40;99.90
56542;DHT22;42438;53.174;6.730;2023-05-16T05:47:42;9.20;99.90
56542;DHT22;42438;53.174;6.730;2023-05-16T05:50:12;10.20;89.50
56542;DHT22;42438;53.174;6.730;2023-05-16T05:52:44;11.10;99.90
56542;DHT22;42438;53.174;6.730;2023-05-16T05:55:15;11.80;89.50
56542;DHT22;42438;53.174;6.730;2023-05-16T05:57:46;12.30;99.90
56542;DHT22;42438;53.174;6.730;2023-05-16T06:00:17;12.80;1.00
56542;DHT22;42438;53.174;6.730;2023-05-16T06:02:47;13.00;1.00
56542;DHT22;42438;53.174;6.730;2023-05-16T06:05:18;13.10;99.90
56542;DHT22;42438;53.174;6.730;2023-05-16T06:07:49;13.20;99.90
56542;DHT22;42438;53.174;6.730;2023-05-16T06:10:19;13.40;99.90
56542;DHT22;42438;53.174;6.730;2023-05-16T06:12:50;13.30;99.90
56542;DHT22;42438;53.174;6.730;2023-05-16T06:15:21;13.20;99.90
56542;DHT22;42438;53.174;6.730;2023-05-16T06:17:52;13.20;99.90
56542;DHT22;42438;53.174;6.730;2023-05-16T06:20:22;12.70;99.90
56542;DHT22;42438;53.174;6.730;2023-05-16T06:22:53;12.50;99.90
56542;DHT22;42438;53.174;6.730;2023-05-16T06:25:24;12.10;99.90
56542;DHT22;42438;53.174;6.730;2023-05-16T06:27:54;11.70;99.90
56542;DHT22;42438;53.174;6.730;2023-05-16T06:30:25;11.30;1.00
56542;DHT22;42438;53.174;6.730;2023-05-16T06:32:56;11.20;99.90
56542;DHT22;42438;53.174;6.730;2023-05-16T06:35:26;11.10;99.90
56542;DHT22;42438;53.174;6.730;2023-05-16T06:37:57;11.10;99.90
56542;DHT22;42438;53.174;6.730;2023-05-16T06:40:28;11.10;99.90
56542;DHT22;42438;53.174;6.730;2023-05-16T06:42:58;11.20;99.90
56542;DHT22;42438;53.174;6.730;2023-05-16T06:45:29;11.30;99.90
56542;DHT22;42438;53.174;6.730;2023-05-16T06:47:59;11.40;1.00
56542;DHT22;42438;53.174;6.730;2023-05-16T06:50:30;11.20;99.90
56542;DHT22;42438;53.174;6.730;2023-05-16T06:53:01;10.80;99.90
56542;DHT22;42438;53.174;6.730;2023-05-16T06:55:34;10.40;99.90
56542;DHT22;42438;53.174;6.730;2023-05-16T06:58:05;10.40;89.50
56542;DHT22;42438;53.174;6.730;2023-05-16T07:00:35;10.60;99.90
56542;DHT22;42438;53.174;6.730;2023-05-16T07:03:06;10.70;1.10
56542;DHT22;42438;53.174;6.730;2023-05-16T07:05:36;10.90;99.90
56542;DHT22;42438;53.174;6.730;2023-05-16T07:08:10;11.30;1.00
56542;DHT22;42438;53.174;6.730;2023-05-16T07:10:41;11.00;99.90
56542;DHT22;42438;53.174;6.730;2023-05-16T07:13:12;10.70;99.90
56542;DHT22;42438;53.174;6.730;2023-05-16T07:15:42;10.20;99.90
56542;DHT22;42438;53.174;6.730;2023-05-16T07:18:13;10.00;99.90
56542;DHT22;42438;53.174;6.730;2023-05-16T07:20:44;10.10;99.90
56542;DHT22;42438;53.174;6.730;2023-05-16T07:23:15;10.20;99.90
56542;DHT22;42438;53.174;6.730;2023-05-16T07:25:46;10.40;99.90
56542;DHT22;42438;53.174;6.730;2023-05-16T07:28:16;10.60;99.90
56542;DHT22;42438;53.174;6.730;2023-05-16T07:30:47;11.10;99.90
56542;DHT22;42438;53.174;6.730;2023-05-16T07:33:18;11.00;99.90
56542;DHT22;42438;53.174;6.730;2023-05-16T07:35:48;11.10;99.90
56542;DHT22;42438;53.174;6.730;2023-05-16T07:38:20;11.40;76.30
56542;DHT22;42438;53.174;6.730;2023-05-16T07:40:51;11.70;99.90
56542;DHT22;42438;53.174;6.730;2023-05-16T07:43:22;11.90;50.00
56542;DHT22;42438;53.174;6.730;2023-05-16T07:45:52;11.50;18.40
56542;DHT22;42438;53.174;6.730;2023-05-16T07:48:23;11.10;11.70
56542;DHT22;42438;53.174;6.730;2023-05-16T07:50:54;10.70;33.00
56542;DHT22;42438;53.174;6.730;2023-05-16T07:53:25;10.70;99.90
56542;DHT22;42438;53.174;6.730;2023-05-16T07:55:55;11.00;99.90
56542;DHT22;42438;53.174;6.730;2023-05-16T07:58:26;11.30;99.90
56542;DHT22;42438;53.174;6.730;2023-05-16T08:00:57;11.60;82.10
56542;DHT22;42438;53.174;6.730;2023-05-16T08:03:28;11.60;75.30
56542;DHT22;42438;53.174;6.730;2023-05-16T08:05:58;11.60;25.10
56542;DHT22;42438;53.174;6.730;2023-05-16T08:08:29;11.50;25.10
56542;DHT22;42438;53.174;6.730;2023-05-16T08:10:59;11.40;3.80
56542;DHT22;42438;53.174;6.730;2023-05-16T08:13:30;11.20;4.30
56542;DHT22;42438;53.174;6.730;2023-05-16T08:16:01;11.40;18.20
56542;DHT22;42438;53.174;6.730;2023-05-16T08:18:32;11.40;3.30
56542;DHT22;42438;53.174;6.730;2023-05-16T08:21:02;11.20;1.00
56542;DHT22;42438;53.174;6.730;2023-05-16T08:23:33;10.90;1.00
56542;DHT22;42438;53.174;6.730;2023-05-16T08:26:04;11.10;1.00
56542;DHT22;42438;53.174;6.730;2023-05-16T08:28:34;11.40;12.90
56542;DHT22;42438;53.174;6.730;2023-05-16T08:31:05;11.50;1.00
56542;DHT22;42438;53.174;6.730;2023-05-16T08:33:36;11.40;1.00
56542;DHT22;42438;53.174;6.730;2023-05-16T08:36:08;11.60;7.30
56542;DHT22;42438;53.174;6.730;2023-05-16T08:38:39;11.70;1.00
56542;DHT22;42438;53.174;6.730;2023-05-16T08:41:09;11.80;1.00
56542;DHT22;42438;53.174;6.730;2023-05-16T08:43:40;11.80;1.00
56542;DHT22;42438;53.174;6.730;2023-05-16T08:46:11;11.90;1.00
56542;DHT22;42438;53.174;6.730;2023-05-16T08:48:42;12.10;1.00
56542;DHT22;42438;53.174;6.730;2023-05-16T08:51:15;12.30;1.00
56542;DHT22;42438;53.174;6.730;2023-05-16T08:54:02;12.50;1.00
56542;DHT22;42438;53.174;6.730;2023-05-16T08:56:33;12.70;1.00
56542;DHT22;42438;53.174;6.730;2023-05-16T08:59:06;12.70;1.00
56542;DHT22;42438;53.174;6.730;2023-05-16T09:01:37;12.40;1.00
56542;DHT22;42438;53.174;6.730;2023-05-16T09:04:08;12.20;1.00
56542;DHT22;42438;53.174;6.730;2023-05-16T09:06:39;12.00;1.00
56542;DHT22;42438;53.174;6.730;2023-05-16T09:09:11;12.30;1.00
56542;DHT22;42438;53.174;6.730;2023-05-16T09:11:42;11.90;1.00
56542;DHT22;42438;53.174;6.730;2023-05-16T09:14:13;11.90;1.00
56542;DHT22;42438;53.174;6.730;2023-05-16T09:16:44;11.60;6.00
56542;DHT22;42438;53.174;6.730;2023-05-16T09:19:39;11.30;14.90
56542;DHT22;42438;53.174;6.730;2023-05-16T09:22:11;11.80;99.90
56542;DHT22;42438;53.174;6.730;2023-05-16T09:24:43;12.30;96.30
56542;DHT22;42438;53.174;6.730;2023-05-16T09:27:14;12.40;9.80
56542;DHT22;42438;53.174;6.730;2023-05-16T09:29:49;12.30;10.20
56542;DHT22;42438;53.174;6.730;2023-05-16T09:32:20;12.10;4.90
56542;DHT22;42438;53.174;6.730;2023-05-16T09:34:52;12.00;1.00
56542;DHT22;42438;53.174;6.730;2023-05-16T09:37:23;12.40;4.80
56542;DHT22;42438;53.174;6.730;2023-05-16T09:39:54;12.50;1.00
56542;DHT22;42438;53.174;6.730;2023-05-16T09:42:25;12.80;1.00
56542;DHT22;42438;53.174;6.730;2023-05-16T09:44:56;12.90;1.00
56542;DHT22;42438;53.174;6.730;2023-05-16T09:47:29;12.20;1.00
56542;DHT22;42438;53.174;6.730;2023-05-16T09:50:00;11.40;1.00
56542;DHT22;42438;53.174;6.730;2023-05-16T09:52:31;10.90;1.00
56542;DHT22;42438;53.174;6.730;2023-05-16T09:55:04;10.50;1.00
56542;DHT22;42438;53.174;6.730;2023-05-16T09:57:36;10.50;19.80
56542;DHT22;42438;53.174;6.730;2023-05-16T10:00:11;10.80;76.80
56542;DHT22;42438;53.174;6.730;2023-05-16T10:02:43;11.50;89.70
56542;DHT22;42438;53.174;6.730;2023-05-16T10:05:14;12.00;35.20
56542;DHT22;42438;53.174;6.730;2023-05-16T10:07:46;12.50;31.30
56542;DHT22;42438;53.174;6.730;2023-05-16T10:10:17;12.60;19.30
56542;DHT22;42438;53.174;6.730;2023-05-16T10:12:49;13.10;18.50
56542;DHT22;42438;53.174;6.730;2023-05-16T10:15:20;13.30;1.00
56542;DHT22;42438;53.174;6.730;2023-05-16T10:17:52;13.30;1.00
56542;DHT22;42438;53.174;6.730;2023-05-16T10:20:24;12.90;1.00
56542;DHT22;42438;53.174;6.730;2023-05-16T10:22:57;12.50;1.00
56542;DHT22;42438;53.174;6.730;2023-05-16T10:25:39;12.60;1.00
56542;DHT22;42438;53.174;6.730;2023-05-16T10:28:12;12.90;1.00
56542;DHT22;42438;53.174;6.730;2023-05-16T10:30:44;13.00;1.00
56542;DHT22;42438;53.174;6.730;2023-05-16T10:33:17;13.00;1.00
56542;DHT22;42438;53.174;6.730;2023-05-16T10:35:49;12.40;1.00
56542;DHT22;42438;53.174;6.730;2023-05-16T10:38:20;12.00;1.00
56542;DHT22;42438;53.174;6.730;2023-05-16T10:40:53;11.50;1.00
56542;DHT22;42438;53.174;6.730;2023-05-16T10:43:26;11.20;1.00
56542;DHT22;42438;53.174;6.730;2023-05-16T10:46:05;11.10;1.00
56542;DHT22;42438;53.174;6.730;2023-05-16T10:48:38;11.20;9.30
56542;DHT22;42438;53.174;6.730;2023-05-16T10:54:04;12.00;40.00
56542;DHT22;42438;53.174;6.730;2023-05-16T10:56:36;12.50;46.10
56542;DHT22;42438;53.174;6.730;2023-05-16T10:59:23;12.60;17.00
56542;DHT22;42438;53.174;6.730;2023-05-16T11:01:55;12.60;1.00
56542;DHT22;42438;53.174;6.730;2023-05-16T11:04:44;12.40;1.00
56542;DHT22;42438;53.174;6.730;2023-05-16T11:07:17;12.60;14.70
56542;DHT22;42438;53.174;6.730;2023-05-16T11:10:07;12.90;37.30
56542;DHT22;42438;53.174;6.730;2023-05-16T11:12:48;13.30;51.20
56542;DHT22;42438;53.174;6.730;2023-05-16T11:15:27;13.70;6.30
56542;DHT22;42438;53.174;6.730;2023-05-16T11:18:13;13.80;1.00
56542;DHT22;42438;53.174;6.730;2023-05-16T11:20:44;13.60;1.00
56542;DHT22;42438;53.174;6.730;2023-05-16T11:28:24;13.10;1.00
56542;DHT22;42438;53.174;6.730;2023-05-16T11:30:59;13.10;1.00
56542;DHT22;42438;53.174;6.730;2023-05-16T11:33:30;13.30;1.00
56542;DHT22;42438;53.174;6.730;2023-05-16T11:36:06;13.50;1.00
56542;DHT22;42438;53.174;6.730;2023-05-16T11:38:37;13.50;1.00
56542;DHT22;42438;53.174;6.730;2023-05-16T11:41:12;13.30;1.00
56542;DHT22;42438;53.174;6.730;2023-05-16T11:43:45;13.30;1.00
56542;DHT22;42438;53.174;6.730;2023-05-16T11:46:16;13.20;1.00
56542;DHT22;42438;53.174;6.730;2023-05-16T11:48:47;13.30;1.00
56542;DHT22;42438;53.174;6.730;2023-05-16T11:51:18;13.70;1.00
56542;DHT22;42438;53.174;6.730;2023-05-16T11:53:50;14.00;1.00
56542;DHT22;42438;53.174;6.730;2023-05-16T11:56:21;14.00;1.00
56542;DHT22;42438;53.174;6.730;2023-05-16T11:58:52;14.20;1.00
56542;DHT22;42438;53.174;6.730;2023-05-16T12:01:23;14.00;1.00
56542;DHT22;42438;53.174;6.730;2023-05-16T12:03:58;13.90;1.00
56542;DHT22;42438;53.174;6.730;2023-05-16T12:06:28;14.10;1.00
56542;DHT22;42438;53.174;6.730;2023-05-16T12:09:00;14.10;1.00
56542;DHT22;42438;53.174;6.730;2023-05-16T12:11:41;13.70;1.00
56542;DHT22;42438;53.174;6.730;2023-05-16T12:14:12;13.90;1.00
56542;DHT22;42438;53.174;6.730;2023-05-16T12:16:43;14.10;1.00
56542;DHT22;42438;53.174;6.730;2023-05-16T12:19:15;13.70;1.00
56542;DHT22;42438;53.174;6.730;2023-05-16T12:21:46;13.70;1.00
56542;DHT22;42438;53.174;6.730;2023-05-16T12:24:17;13.70;1.00
56542;DHT22;42438;53.174;6.730;2023-05-16T12:26:48;13.50;1.00
56542;DHT22;42438;53.174;6.730;2023-05-16T12:29:20;13.20;1.00
56542;DHT22;42438;53.174;6.730;2023-05-16T12:31:52;13.30;1.00
56542;DHT22;42438;53.174;6.730;2023-05-16T12:34:23;13.30;1.00
56542;DHT22;42438;53.174;6.730;2023-05-16T12:36:58;13.40;1.00
56542;DHT22;42438;53.174;6.730;2023-05-16T12:39:36;13.40;1.00
56542;DHT22;42438;53.174;6.730;2023-05-16T12:42:07;13.50;1.00
56542;DHT22;42438;53.174;6.730;2023-05-16T12:44:39;13.50;1.00
56542;DHT22;42438;53.174;6.730;2023-05-16T12:47:14;13.80;1.00
56542;DHT22;42438;53.174;6.730;2023-05-16T12:49:45;14.00;1.00
56542;DHT22;42438;53.174;6.730;2023-05-16T12:52:20;14.10;1.00
56542;DHT22;42438;53.174;6.730;2023-05-16T12:54:50;13.90;1.00
56542;DHT22;42438;53.174;6.730;2023-05-16T12:57:23;13.80;1.00
56542;DHT22;42438;53.174;6.730;2023-05-16T12:59:53;13.40;1.00
56542;DHT22;42438;53.174;6.730;2023-05-16T13:02:24;13.20;1.00
56542;DHT22;42438;53.174;6.730;2023-05-16T13:04:55;12.80;1.00
56542;DHT22;42438;53.174;6.730;2023-05-16T13:07:26;12.70;1.00
56542;DHT22;42438;53.174;6.730;2023-05-16T13:09:57;12.90;1.00
56542;DHT22;42438;53.174;6.730;2023-05-16T13:12:27;13.20;1.00
56542;DHT22;42438;53.174;6.730;2023-05-16T13:14:58;13.20;1.00
56542;DHT22;42438;53.174;6.730;2023-05-16T13:17:29;13.30;1.00
56542;DHT22;42438;53.174;6.730;2023-05-16T13:20:00;13.40;1.00
56542;DHT22;42438;53.174;6.730;2023-05-16T13:22:31;14.00;1.00
56542;DHT22;42438;53.174;6.730;2023-05-16T13:25:03;13.70;1.00
56542;DHT22;42438;53.174;6.730;2023-05-16T13:27:34;13.60;1.00
56542;DHT22;42438;53.174;6.730;2023-05-16T13:30:05;13.10;1.00
56542;DHT22;42438;53.174;6.730;2023-05-16T13:32:36;12.80;1.00
56542;DHT22;42438;53.174;6.730;2023-05-16T13:35:07;12.80;1.00
56542;DHT22;42438;53.174;6.730;2023-05-16T13:37:39;12.90;1.00
56542;DHT22;42438;53.174;6.730;2023-05-16T13:40:10;12.90;1.00
56542;DHT22;42438;53.174;6.730;2023-05-16T13:42:41;12.80;1.00
56542;DHT22;42438;53.174;6.730;2023-05-16T13:45:12;12.80;1.00
56542;DHT22;42438;53.174;6.730;2023-05-16T13:47:42;12.60;1.00
56542;DHT22;42438;53.174;6.730;2023-05-16T13:50:13;12.20;1.00
56542;DHT22;42438;53.174;6.730;2023-05-16T13:52:44;12.30;1.00
56542;DHT22;42438;53.174;6.730;2023-05-16T13:55:16;12.60;1.00
56542;DHT22;42438;53.174;6.730;2023-05-16T13:57:48;12.90;1.00
56542;DHT22;42438;53.174;6.730;2023-05-16T14:00:19;12.80;1.00
56542;DHT22;42438;53.174;6.730;2023-05-16T14:02:49;12.70;1.00
56542;DHT22;42438;53.174;6.730;2023-05-16T14:05:20;12.90;1.00
56542;DHT22;42438;53.174;6.730;2023-05-16T14:07:51;12.80;1.00
56542;DHT22;42438;53.174;6.730;2023-05-16T14:10:21;12.90;1.00
56542;DHT22;42438;53.174;6.730;2023-05-16T14:12:52;12.70;1.00
56542;DHT22;42438;53.174;6.730;2023-05-16T14:15:23;12.60;1.00
56542;DHT22;42438;53.174;6.730;2023-05-16T14:17:53;12.90;1.00
56542;DHT22;42438;53.174;6.730;2023-05-16T14:20:24;12.80;1.00
56542;DHT22;42438;53.174;6.730;2023-05-16T14:22:55;13.00;1.00
56542;DHT22;42438;53.174;6.730;2023-05-16T14:25:26;13.10;1.00
56542;DHT22;42438;53.174;6.730;2023-05-16T14:27:56;12.90;1.00
56542;DHT22;42438;53.174;6.730;2023-05-16T14:30:27;13.00;1.00
56542;DHT22;42438;53.174;6.730;2023-05-16T14:32:57;13.20;1.00
56542;DHT22;42438;53.174;6.730;2023-05-16T14:35:28;13.30;1.00
56542;DHT22;42438;53.174;6.730;2023-05-16T14:38:00;13.40;1.00
56542;DHT22;42438;53.174;6.730;2023-05-16T14:40:31;13.20;1.00
56542;DHT22;42438;53.174;6.730;2023-05-16T14:43:01;13.20;1.00
56542;DHT22;42438;53.174;6.730;2023-05-16T14:45:33;12.70;1.00
56542;DHT22;42438;53.174;6.730;2023-05-16T14:48:05;12.20;1.00
56542;DHT22;42438;53.174;6.730;2023-05-16T14:50:36;11.70;1.00
56542;DHT22;42438;53.174;6.730;2023-05-16T14:53:07;11.50;1.00
56542;DHT22;42438;53.174;6.730;2023-05-16T14:55:38;11.40;1.00
56542;DHT22;42438;53.174;6.730;2023-05-16T14:58:08;11.30;11.20
56542;DHT22;42438;53.174;6.730;2023-05-16T15:00:39;11.30;17.40
56542;DHT22;42438;53.174;6.730;2023-05-16T15:03:10;11.40;29.80
56542;DHT22;42438;53.174;6.730;2023-05-16T15:05:40;11.60;99.90
56542;DHT22;42438;53.174;6.730;2023-05-16T15:08:11;11.90;99.90
56542;DHT22;42438;53.174;6.730;2023-05-16T15:10:41;12.10;99.90
56542;DHT22;42438;53.174;6.730;2023-05-16T15:13:12;12.20;83.20
56542;DHT22;42438;53.174;6.730;2023-05-16T15:15:43;12.00;39.90
56542;DHT22;42438;53.174;6.730;2023-05-16T15:18:13;12.10;54.90
56542;DHT22;42438;53.174;6.730;2023-05-16T15:20:44;12.30;58.50
56542;DHT22;42438;53.174;6.730;2023-05-16T15:23:15;12.20;22.50
56542;DHT22;42438;53.174;6.730;2023-05-16T15:25:46;12.10;43.10
56542;DHT22;42438;53.174;6.730;2023-05-16T15:28:16;12.00;35.00
56542;DHT22;42438;53.174;6.730;2023-05-16T15:30:50;12.00;66.80
56542;DHT22;42438;53.174;6.730;2023-05-16T15:33:20;12.20;69.90
56542;DHT22;42438;53.174;6.730;2023-05-16T15:35:51;12.40;31.90
56542;DHT22;42438;53.174;6.730;2023-05-16T15:38:22;12.30;1.00
56542;DHT22;42438;53.174;6.730;2023-05-16T15:40:52;12.20;1.00
56542;DHT22;42438;53.174;6.730;2023-05-16T15:43:23;12.10;1.00
56542;DHT22;42438;53.174;6.730;2023-05-16T15:45:54;12.00;1.00
56542;DHT22;42438;53.174;6.730;2023-05-16T15:48:24;11.90;1.00
56542;DHT22;42438;53.174;6.730;2023-05-16T15:50:55;11.70;1.00
56542;DHT22;42438;53.174;6.730;2023-05-16T15:53:26;11.60;1.00
56542;DHT22;42438;53.174;6.730;2023-05-16T15:55:56;11.70;1.00
56542;DHT22;42438;53.174;6.730;2023-05-16T15:58:27;11.70;1.00
56542;DHT22;42438;53.174;6.730;2023-05-16T16:00:57;11.80;1.00
56542;DHT22;42438;53.174;6.730;2023-05-16T16:03:28;11.90;1.00
56542;DHT22;42438;53.174;6.730;2023-05-16T16:05:59;11.80;1.00
56542;DHT22;42438;53.174;6.730;2023-05-16T16:08:29;11.70;1.00
56542;DHT22;42438;53.174;6.730;2023-05-16T16:11:00;11.70;1.00
56542;DHT22;42438;53.174;6.730;2023-05-16T16:13:31;11.60;5.50
56542;DHT22;42438;53.174;6.730;2023-05-16T16:16:02;11.70;7.30
56542;DHT22;42438;53.174;6.730;2023-05-16T16:18:33;11.70;1.00
56542;DHT22;42438;53.174;6.730;2023-05-16T16:21:04;11.70;4.20
56542;DHT22;42438;53.174;6.730;2023-05-16T16:23:35;11.80;1.00
56542;DHT22;42438;53.174;6.730;2023-05-16T16:26:06;11.80;1.70
56542;DHT22;42438;53.174;6.730;2023-05-16T16:28:37;11.80;1.00